Friday, April 29, 2016
17:54 UTC
  |  Log In   |  Register Free
Airport Search:

Hampton Roads Executive Airport
(KPVG)

Hampton Roads Executive Airport Diagram
No Airport Diagram Available

FAA data valid effective Mar 31 2016 - May 26 2016 (unless otherwise noted).

 
 
 
 
 
 
 
 
 
 
 
 
 
 
Current Aviation Weather for KPVG

Weather Summary


The most recent METAR observation for PVG was updated at: 12:55 UTC
METAR for KPVG is not available. Closest METAR is for KCPK
KPVG  (most recent observation was updatred at 29:16 UTC)
291635Z AUTO 02006KT OVC010 16/13 A3003 RMK AO1

KCPK  (9.2 nm NW)   (most recent observation was updated at 29:16 UTC)
291615Z AUTO 00000KT 10SM OVC007 14/12 A3001 RMK AO2 T01400120

KSFQ  (9.4 nm NE)   (most recent observation was updated at 29:16 UTC)
291635Z AUTO 33003KT 10SM OVC011 15/13 A3001 RMK AO2 T01460126

TAF for KPVG is not available.
KNGU  (12.2 nm SW)   (most recent observation was updatred at UTC)
2915/3015 03008KT 4000 BR OVC006 QNH2997INS TEMPO 2919/2923 9000 BR SCT008 BKN015 FM292300 04010KT 4800 BR OVC003 QNH2998INS T16/2919Z T13/3009Z FN20000


KORF  (13.7 nm SW)   (most recent observation was updatred at 29:14 UTC)
AMD 291407Z 2914/3012 04008KT 5SM BR OVC006 TEMPO 2914/2916 3SM BR OVC004 FM291900 05006KT P6SM BKN015 FM300200 05005KT P6SM OVC004


KLFI  (18.7 nm SW)   (most recent observation was updatred at 29:16 UTC)
AMD 291609Z 2916/3015 05009KT 9999 OVC007 QNH2991INS BECMG 2918/2919 36009KT 9000 BR BKN010 QNH2990INS BECMG 3002/3003 05006KT 6000 BR BKN007 QNH2994INS BECMG 3006/3007 03009KT 6000 BR OVC004 QNH2999INS TX18/2919Z TN13/2916Z
GlobalAir.com is loading additional information.
 Current Weather at PVG
59.0 F° (15.0 C°)

Northeast winds at 6.9 mph
Pressure:
30.04 in
Humidity:
88%
Wind:
Northeast at 6.9 mph
Dew Point:
55.4 F° (13.0 C°)
Visibility:
mi
PVG NOAA Radar




Find All Airport Services Find A Hotel Find A Rental Car Find A Golf Course Find A Restaurant $100 Hamburger



Airport Weather Forecast for KPVG

Translated METAR for KPVG (1635 UTC)
METAR:
KPVG 291635Z AUTO 02006KT OVC010 16/13 A3003 RMK AO1
Conditions at:
KPVG (Hampton Roads Executive, VA) observed 1635 UTC 29 April 2016
Temperature:
16°C (60.8°F)
Dewpoint:
not reported - refer to area weather report
Pressure:
30.03 inches Hg (1016.9 mb)
Winds:
from the NNE (020 degrees) at 6.9 mph (6 knots: 3.1 m/s)
Visibility:
not reported - refer to area weather report
Ceiling:
at least 12,000 feet AGL
Clouds:
not reported - refer to area weather report
Remarks:
site is un-manned
site is automated and does NOT have a precipitation sensor

Translated TAF for KNGU (Norfolk Ns (Chambers Fld), VA) ( UTC)
TAF text:
KNGU 2915/3015 03008KT 4000 BR OVC006 QNH2997INS
Forecast period:
Friday Apr 29 2016 15:00 UTC - Saturday Apr 30 2016 15:00 UTC
Forecast type:
FROM: standard forecast or significant change
Winds:
from the NNE (030 degrees) at 9.2 mph (8 knots: 4.1 m/s)
Visibility:
Ceiling:
600 feet AGL
Clouds:
Overcast Skies at 600 feet AGL
Weather:
Moderate Mist
TAF text:
2919/2923 9000 BR SCT008 BKN015
Forecast period:
Saturday Apr 30 2016 19:00 UTC - Saturday Apr 30 2016 23:00 UTC
Forecast type:
FROM: standard forecast or significant change
Winds:
Visibility:
Ceiling:
1,500 feet AGL
Clouds:
Scattered Clouds at 800 feet AGL
Broken Cloud Cover at 1,500 feet AGL
Weather:
Moderate Mist
TAF text:
FM292300 04010KT 4800 BR OVC003 QNH2998INS T16/2919Z T13/3009Z FN20000
Forecast period:
Friday Apr 29 2016 23:00 UTC - Saturday Apr 30 2016 15:00 UTC
Forecast type:
FROM: standard forecast or significant change
Winds:
from the NE (040 degrees) at 11.5 mph (10 knots: 5.1 m/s)
Visibility:
Ceiling:
300 feet AGL
Clouds:
Overcast Skies at 300 feet AGL
Weather:
Moderate Mist
FBO's on the Field
FBO Company Facility Photos Services Transportation Aviation Fuel Prices: Prices include tax
Catering Weather Repair Courtesy Rental Type 100LL JetA JetA+ MOGAS 8087
 
Hampton Roads Executive Airport

Currently rated 5 by 1 person
FS:Shell
Last Updated: Mar-22
Login to update fuel prices
SS:
Contact Hampton Roads Executive AirportMore FBO Information
 
Add another FBO Facility Photos Catering Weather Repair Courtesy Rental Type 100LL JetA JetA+ MOGAS 8087
Services Transportation Aviation Fuel Prices: Prices include tax


model-print
model-print
model-print
model-print